Time;durP1;ratioP1;P1;durP2;ratioP2;P2;SDS_P1;SDS_P2;PMS_P1;PMS_P2;Temp;Humidity;BMP_temperature;BMP_pressure;BME280_temperature;BME280_humidity;BME280_pressure;Samples;Min_cycle;Max_cycle;Signal;HPM_P1;HPM_P2
2023/03/03 00:01:00;;;;;;;16.50;9.97;;;;;;;2.59;56.32;99143.69;5094172;28;41810;-78
2023/03/03 00:03:28;;;;;;;17.37;10.43;;;;;;;2.58;56.73;99144.59;5093586;28;42879;-78
2023/03/03 00:05:56;;;;;;;15.13;9.53;;;;;;;2.59;55.74;99143.69;5093988;28;43191;-79
2023/03/03 00:08:24;;;;;;;13.53;9.37;;;;;;;2.58;55.76;99146.34;5076620;28;42533;-78
2023/03/03 00:10:54;;;;;;;17.80;10.60;;;;;;;2.56;55.53;99142.91;5094204;28;41745;-78
2023/03/03 00:13:23;;;;;;;14.83;9.40;;;;;;;2.41;55.32;99134.56;5076831;28;41905;-78
2023/03/03 00:15:52;;;;;;;12.33;8.50;;;;;;;2.49;55.42;99148.28;5093609;28;42310;-78
2023/03/03 00:18:28;;;;;;;16.13;10.37;;;;;;;2.48;56.10;99151.78;5093455;28;40113;-78
2023/03/03 00:20:59;;;;;;;16.10;10.23;;;;;;;2.46;55.94;99158.84;5075791;28;40627;-79
2023/03/03 00:23:31;;;;;;;16.77;9.30;;;;;;;2.33;56.02;99152.19;5090106;28;42927;-78
2023/03/03 00:25:59;;;;;;;17.60;9.77;;;;;;;2.42;56.10;99161.56;5075798;28;41345;-78
2023/03/03 00:28:30;;;;;;;14.23;9.67;;;;;;;2.41;56.78;99165.06;5093333;28;40169;-78
2023/03/03 00:30:59;;;;;;;16.77;11.10;;;;;;;2.26;56.91;99145.38;5075790;28;40859;-79
2023/03/03 00:33:32;;;;;;;15.60;11.10;;;;;;;2.40;56.93;99168.56;5075922;28;43122;-78
2023/03/03 00:36:26;;;;;;;16.10;9.97;;;;;;;2.41;57.40;99171.16;5091350;28;42083;-78
2023/03/03 00:38:54;;;;;;;16.57;11.33;;;;;;;2.40;58.11;99147.66;5082873;28;40177;-79
2023/03/03 00:41:24;;;;;;;16.00;10.50;;;;;;;2.30;58.48;99131.34;5075446;28;40462;-78
2023/03/03 00:43:52;;;;;;;17.33;11.20;;;;;;;2.41;58.26;99155.47;5075958;28;41904;-78
2023/03/03 00:46:22;;;;;;;16.50;10.40;;;;;;;2.42;59.20;99151.94;5075375;28;42389;-79
2023/03/03 00:48:51;;;;;;;16.67;11.07;;;;;;;2.42;60.50;99145.88;5075933;28;41282;-78
2023/03/03 00:51:27;;;;;;;18.30;11.70;;;;;;;2.32;59.92;99129.56;5075532;28;40504;-79
2023/03/03 00:53:56;;;;;;;20.53;12.80;;;;;;;2.43;60.03;99148.44;5089757;28;43794;-78
2023/03/03 00:56:24;;;;;;;18.17;11.33;;;;;;;2.44;60.14;99152.78;5092635;28;43185;-78
2023/03/03 00:58:52;;;;;;;19.57;11.93;;;;;;;2.45;60.70;99151.03;5092841;28;40696;-78
2023/03/03 01:01:24;;;;;;;16.93;11.10;;;;;;;2.34;60.27;99130.38;5075413;28;40635;-78
2023/03/03 01:03:55;;;;;;;19.47;11.60;;;;;;;2.43;60.42;99153.66;5075629;28;41768;-78
2023/03/03 01:06:23;;;;;;;17.73;11.43;;;;;;;2.36;59.49;99161.69;5075141;28;41901;-78
2023/03/03 01:08:50;;;;;;;18.80;11.17;;;;;;;2.37;59.56;99166.00;5075642;28;41319;-78
2023/03/03 01:11:23;;;;;;;16.40;11.20;;;;;;;2.33;59.28;99167.88;5075197;28;42207;-78
2023/03/03 01:13:52;;;;;;;15.87;10.53;;;;;;;2.30;59.19;99161.84;5089389;28;42824;-78
2023/03/03 01:16:20;;;;;;;15.47;11.00;;;;;;;2.26;58.83;99171.50;5091887;28;42048;-78
2023/03/03 01:18:47;;;;;;;19.33;12.37;;;;;;;2.23;58.86;99170.72;5075270;28;39874;-78
2023/03/03 01:21:17;;;;;;;17.37;10.97;;;;;;;2.09;58.54;99153.66;5092251;28;41670;-78
2023/03/03 01:23:44;;;;;;;15.00;10.83;;;;;;;2.14;58.41;99167.44;5075193;28;42229;-78
2023/03/03 01:26:12;;;;;;;15.27;10.73;;;;;;;2.12;58.78;99170.97;5074983;28;42617;-78
2023/03/03 01:28:40;;;;;;;18.40;12.07;;;;;;;2.11;59.63;99166.63;5075709;28;38954;-79
2023/03/03 01:31:07;;;;;;;18.50;12.70;;;;;;;2.10;61.31;99154.50;5091589;28;40940;-78
2023/03/03 01:33:36;;;;;;;16.83;11.53;;;;;;;2.10;60.81;99154.50;5093231;28;42900;-78
2023/03/03 01:36:04;;;;;;;20.80;12.63;;;;;;;2.09;60.78;99152.78;5091804;28;42208;-78
2023/03/03 01:38:35;;;;;;;18.73;12.13;;;;;;;2.05;60.52;99157.22;5075307;28;40200;-78
2023/03/03 01:41:03;;;;;;;23.03;12.43;;;;;;;2.02;60.82;99152.06;5074808;28;40706;-78
2023/03/03 01:43:33;;;;;;;18.33;11.70;;;;;;;1.98;60.50;99149.56;5074992;28;42783;-78
2023/03/03 01:46:42;;;;;;;20.23;12.37;;;;;;;1.93;62.80;99130.53;5074651;28;42448;-78
2023/03/03 01:49:16;;;;;;;19.30;13.20;;;;;;;1.89;61.97;99136.69;5075134;28;39099;-78
2023/03/03 01:51:49;;;;;;;19.00;12.60;;;;;;;1.85;61.73;99138.53;5074926;28;41389;-77
2023/03/03 01:54:24;;;;;;;20.97;11.90;;;;;;;1.84;61.18;99146.41;5088845;28;42810;-78
2023/03/03 01:56:56;;;;;;;19.13;11.50;;;;;;;1.73;60.65;99124.00;5091513;28;43223;-78
2023/03/03 01:59:27;;;;;;;21.07;12.20;;;;;;;1.67;60.73;99129.38;5088784;28;40029;-78
2023/03/03 02:01:55;;;;;;;19.40;11.33;;;;;;;1.68;61.20;99123.25;5074273;28;41741;-78
2023/03/03 02:04:25;;;;;;;21.97;13.37;;;;;;;1.68;63.93;99120.63;5074817;28;42104;-78
2023/03/03 02:06:58;;;;;;;23.77;14.13;;;;;;;1.63;64.82;99111.19;5091626;28;41456;-78
2023/03/03 02:09:37;;;;;;;22.00;14.97;;;;;;;1.59;63.32;99117.38;5075172;28;39016;-78
2023/03/03 02:12:08;;;;;;;22.47;13.93;;;;;;;1.58;62.80;99126.09;5088914;28;41774;-78
2023/03/03 02:14:36;;;;;;;19.27;12.27;;;;;;;1.54;62.20;99130.53;5091398;28;42105;-78
2023/03/03 02:17:04;;;;;;;19.13;12.77;;;;;;;1.50;61.90;99136.69;5074523;28;41821;-78
2023/03/03 02:19:42;;;;;;;17.10;11.37;;;;;;;1.47;61.63;99136.78;5091742;28;39749;-78
2023/03/03 02:22:11;;;;;;;17.77;11.70;;;;;;;1.42;61.46;99147.31;5088692;28;41709;-78
2023/03/03 02:24:45;;;;;;;17.97;11.77;;;;;;;1.38;61.12;99139.56;5091241;28;43831;-78
2023/03/03 02:27:14;;;;;;;17.57;11.63;;;;;;;1.33;60.92;99136.22;5089521;28;42096;-78
2023/03/03 02:29:44;;;;;;;16.57;10.30;;;;;;;1.29;60.89;99139.75;5074383;28;38579;-78
2023/03/03 02:32:12;;;;;;;20.80;11.73;;;;;;;1.25;60.92;99148.53;5073964;28;40539;-78
2023/03/03 02:34:50;;;;;;;16.47;10.03;;;;;;;1.21;61.09;99145.16;5074244;28;42899;-79
2023/03/03 02:37:20;;;;;;;16.73;10.40;;;;;;;1.19;61.10;99146.94;5090802;28;42200;-78
2023/03/03 02:39:47;;;;;;;14.97;10.70;;;;;;;1.18;61.66;99144.34;5074126;28;41485;-78
2023/03/03 02:42:22;;;;;;;19.27;12.03;;;;;;;1.17;63.16;99132.19;5091201;28;42707;-78
2023/03/03 02:44:54;;;;;;;17.80;11.53;;;;;;;1.14;62.39;99133.09;5074099;28;43075;-78
2023/03/03 02:47:22;;;;;;;16.50;10.73;;;;;;;1.12;62.16;99134.88;5073949;28;41375;-78
2023/03/03 02:49:50;;;;;;;20.43;12.17;;;;;;;1.02;61.89;99129.00;5074025;28;41403;-79
2023/03/03 02:52:18;;;;;;;19.13;12.27;;;;;;;0.96;61.68;99117.84;5091106;28;42057;-79
2023/03/03 02:54:47;;;;;;;26.47;14.77;;;;;;;1.04;61.62;99135.03;5090965;28;42914;-79
2023/03/03 02:57:15;;;;;;;18.60;12.60;;;;;;;1.01;61.73;99132.50;5074145;28;41407;-79
2023/03/03 02:59:45;;;;;;;16.70;11.10;;;;;;;0.99;61.42;99144.69;5074240;28;39084;-79
2023/03/03 03:02:15;;;;;;;26.23;15.43;;;;;;;0.88;62.17;99122.31;5087903;28;41660;-79
2023/03/03 03:04:43;;;;;;;19.47;11.33;;;;;;;0.91;61.83;99138.78;5073711;28;44275;-79
2023/03/03 03:07:13;;;;;;;19.93;11.87;;;;;;;0.83;61.84;99130.25;5090811;28;42076;-79
2023/03/03 03:09:41;;;;;;;25.73;15.37;;;;;;;0.73;62.03;99123.50;5073659;28;39320;-79
2023/03/03 03:12:09;;;;;;;21.00;12.80;;;;;;;0.84;63.17;99150.22;5073978;28;40644;-79
2023/03/03 03:14:37;;;;;;;23.53;15.07;;;;;;;0.82;64.41;99143.31;5093849;28;43793;-80
2023/03/03 03:17:08;;;;;;;26.43;14.77;;;;;;;0.80;63.64;99140.72;5094356;28;42207;-79
2023/03/03 03:19:35;;;;;;;21.77;13.57;;;;;;;0.80;63.68;99143.34;5094517;28;40091;-79
2023/03/03 03:22:04;;;;;;;20.63;12.87;;;;;;;0.79;63.62;99148.56;5077179;28;44046;-79
2023/03/03 03:24:34;;;;;;;24.87;14.00;;;;;;;0.76;63.22;99157.31;5091281;28;42800;-79
2023/03/03 03:27:06;;;;;;;21.43;14.00;;;;;;;0.75;63.01;99154.72;5077198;28;43736;-79
2023/03/03 03:29:34;;;;;;;23.80;12.93;;;;;;;0.71;62.93;99156.56;5077449;28;40499;-79
2023/03/03 03:32:02;;;;;;;17.10;11.40;;;;;;;0.65;62.86;99146.22;5076639;28;41555;-79
2023/03/03 03:34:31;;;;;;;19.60;11.37;;;;;;;0.65;62.81;99154.03;5076938;28;44118;-79
2023/03/03 03:36:59;;;;;;;16.10;10.93;;;;;;;0.62;62.66;99154.94;5076850;28;42358;-79
2023/03/03 03:39:28;;;;;;;22.40;12.77;;;;;;;0.58;63.40;99150.69;5077254;28;40158;-79
2023/03/03 03:41:57;;;;;;;20.93;12.90;;;;;;;0.62;64.07;99154.09;5076878;28;41803;-79
2023/03/03 03:44:25;;;;;;;20.80;13.10;;;;;;;0.60;64.26;99150.69;5077090;28;43036;-79
2023/03/03 03:46:52;;;;;;;21.17;13.27;;;;;;;0.54;64.31;99132.53;5093837;28;43003;-78
2023/03/03 03:49:21;;;;;;;22.00;13.07;;;;;;;0.50;63.92;99138.66;5077280;28;38753;-79
2023/03/03 03:51:52;;;;;;;21.33;12.47;;;;;;;0.56;63.60;99154.22;5093571;28;42832;-79
2023/03/03 03:54:24;;;;;;;19.90;12.10;;;;;;;0.54;63.49;99158.59;5090778;28;42776;-79
2023/03/03 03:56:53;;;;;;;18.33;12.17;;;;;;;0.53;64.24;99146.44;5093569;28;42897;-79
2023/03/03 03:59:21;;;;;;;24.07;12.70;;;;;;;0.48;65.39;99140.47;5094018;28;39004;-79
2023/03/03 04:01:50;;;;;;;20.70;12.10;;;;;;;0.53;64.81;99159.47;5076431;28;40658;-79
2023/03/03 04:04:18;;;;;;;18.90;11.30;;;;;;;0.34;64.50;99131.16;5093517;28;43788;-79
2023/03/03 04:06:46;;;;;;;19.20;11.00;;;;;;;0.50;64.68;99165.59;5076379;28;42130;-79
2023/03/03 04:09:16;;;;;;;24.27;13.77;;;;;;;0.49;65.26;99163.03;5093630;28;40139;-79
2023/03/03 04:11:45;;;;;;;18.63;11.93;;;;;;;0.42;65.84;99141.41;5076003;28;42408;-79
2023/03/03 04:14:14;;;;;;;19.03;10.93;;;;;;;0.44;65.21;99154.41;5093214;28;42542;-79
2023/03/03 04:16:41;;;;;;;18.07;11.37;;;;;;;0.37;65.19;99150.22;5075795;28;41205;-79
2023/03/03 04:19:10;;;;;;;17.80;11.93;;;;;;;0.40;65.53;99160.56;5076207;28;42079;-79
2023/03/03 04:21:39;;;;;;;18.30;11.57;;;;;;;0.40;65.01;99158.81;5076178;28;42123;-79
2023/03/03 04:24:08;;;;;;;24.73;14.13;;;;;;;0.39;64.92;99161.44;5076137;28;41774;-79
2023/03/03 04:26:37;;;;;;;27.13;15.27;;;;;;;0.25;64.68;99139.09;5076101;28;41055;-79
2023/03/03 04:29:06;;;;;;;34.80;18.33;;;;;;;0.35;64.57;99166.72;5093285;28;40932;-79
2023/03/03 04:31:34;;;;;;;28.53;14.60;;;;;;;0.35;65.00;99168.47;5093741;28;42615;-79
2023/03/03 04:34:03;;;;;;;28.53;15.40;;;;;;;0.33;64.59;99173.69;5093091;28;42772;-79
2023/03/03 04:36:31;;;;;;;26.30;14.57;;;;;;;0.31;64.86;99164.19;5092842;28;42127;-79
2023/03/03 04:39:00;;;;;;;32.53;16.80;;;;;;;0.31;64.96;99170.25;5076203;28;38604;-79
2023/03/03 04:41:27;;;;;;;32.53;16.30;;;;;;;0.28;64.63;99178.13;5093070;28;41919;-79
2023/03/03 04:43:57;;;;;;;24.50;14.70;;;;;;;0.26;64.54;99177.28;5075859;28;41352;-79
2023/03/03 04:46:25;;;;;;;24.07;13.77;;;;;;;0.16;64.48;99160.09;5075598;28;41040;-79
2023/03/03 04:48:54;;;;;;;24.73;13.70;;;;;;;0.22;64.61;99186.03;5093350;28;41119;-79
2023/03/03 04:51:22;;;;;;;25.27;14.67;;;;;;;0.21;64.85;99180.84;5092869;28;41357;-79
2023/03/03 04:53:49;;;;;;;21.37;12.77;;;;;;;0.12;64.49;99174.06;5075927;28;44743;-79
2023/03/03 04:56:17;;;;;;;20.80;12.33;;;;;;;0.17;64.60;99186.97;5092722;28;42322;-79
2023/03/03 04:58:45;;;;;;;21.77;11.60;;;;;;;0.02;64.46;99166.38;5092767;28;40221;-79
2023/03/03 05:01:15;;;;;;;24.53;12.50;;;;;;;0.15;64.50;99193.94;5092462;28;42755;-79
2023/03/03 05:03:43;;;;;;;22.27;12.80;;;;;;;0.09;64.84;99179.31;5092417;28;43776;-79
2023/03/03 05:06:11;;;;;;;26.40;15.27;;;;;;;0.14;65.19;99193.09;5075111;28;41155;-80
2023/03/03 05:08:41;;;;;;;24.50;14.63;;;;;;;0.14;65.38;99193.09;5092547;28;40256;-79
2023/03/03 05:11:09;;;;;;;31.17;16.90;;;;;;;0.12;65.71;99188.81;5075790;28;40452;-79
2023/03/03 05:13:37;;;;;;;33.63;19.33;;;;;;;0.12;65.40;99205.31;5093697;28;42702;-79
2023/03/03 05:16:05;;;;;;;26.80;14.47;;;;;;;0.10;65.28;99193.19;5075364;28;42197;-79
2023/03/03 05:18:35;;;;;;;25.93;14.70;;;;;;;0.09;66.24;99187.13;5075624;28;38857;-79
2023/03/03 05:21:02;;;;;;;32.17;16.43;;;;;;;-0.03;66.38;99163.88;5092322;28;41755;-79
2023/03/03 05:23:31;;;;;;;28.03;16.90;;;;;;;-0.04;66.40;99167.34;5075327;28;44649;-79
2023/03/03 05:25:58;;;;;;;30.87;16.73;;;;;;;0.08;66.12;99190.59;5075557;28;43150;-79
2023/03/03 05:28:26;;;;;;;31.53;17.47;;;;;;;0.06;66.11;99194.97;5075598;28;39325;-79
2023/03/03 05:30:54;;;;;;;27.97;15.37;;;;;;;0.05;66.05;99200.19;5074814;28;40630;-79
2023/03/03 05:33:21;;;;;;;23.50;14.00;;;;;;;-0.12;66.11;99166.59;5092236;28;42684;-79
2023/03/03 05:35:54;;;;;;;28.37;15.60;;;;;;;0.02;66.00;99197.63;5091248;28;42244;-79
2023/03/03 05:38:22;;;;;;;21.90;13.47;;;;;;;-0.14;65.90;99170.97;5075249;28;41444;-79
2023/03/03 05:40:51;;;;;;;23.33;14.60;;;;;;;-0.16;65.66;99180.53;5075005;28;41698;-79
2023/03/03 05:43:18;;;;;;;23.10;13.63;;;;;;;-0.06;65.85;99210.75;5074988;28;43389;-79
2023/03/03 05:45:46;;;;;;;23.67;13.43;;;;;;;-0.06;65.59;99205.56;5091634;28;41191;-79
2023/03/03 05:48:14;;;;;;;20.23;12.20;;;;;;;-0.09;65.83;99205.59;5092164;28;40966;-80
2023/03/03 05:50:41;;;;;;;23.63;13.10;;;;;;;-0.11;66.47;99202.16;5091976;28;41838;-79
2023/03/03 05:53:10;;;;;;;24.13;14.13;;;;;;;-0.07;66.74;99209.91;5091653;28;42855;-79
2023/03/03 05:55:38;;;;;;;22.53;14.13;;;;;;;-0.06;66.28;99215.97;5092766;28;42145;-79
2023/03/03 05:58:06;;;;;;;24.10;14.50;;;;;;;-0.07;66.25;99214.25;5074875;28;40386;-79
2023/03/03 06:00:34;;;;;;;26.00;13.10;;;;;;;-0.19;65.94;99204.88;5092924;28;41729;-79
2023/03/03 06:03:01;;;;;;;26.47;15.67;;;;;;;-0.12;65.85;99210.84;5074742;28;44166;-79
2023/03/03 06:05:29;;;;;;;22.87;13.80;;;;;;;-0.07;65.98;99214.25;5074434;28;42650;-78
2023/03/03 06:07:57;;;;;;;28.87;15.17;;;;;;;-0.09;66.04;99216.00;5091525;28;39996;-79
2023/03/03 06:10:26;;;;;;;25.67;14.33;;;;;;;-0.05;65.93;99222.91;5092823;28;41559;-78
2023/03/03 06:12:57;;;;;;;20.67;12.27;;;;;;;-0.04;65.87;99224.63;5075442;28;41625;-79
2023/03/03 06:15:25;;;;;;;29.60;15.80;;;;;;;-0.02;66.12;99230.66;5074227;28;41118;-78
2023/03/03 06:17:53;;;;;;;23.07;13.73;;;;;;;0.03;66.18;99230.59;5074243;28;39104;-78
2023/03/03 06:20:21;;;;;;;28.40;15.30;;;;;;;-0.04;66.60;99216.81;5090850;28;40959;-78
2023/03/03 06:22:48;;;;;;;25.43;14.90;;;;;;;0.09;66.54;99236.59;5091207;28;43283;-79
2023/03/03 06:25:17;;;;;;;25.10;15.03;;;;;;;0.04;66.26;99216.69;5074236;28;41406;-78
2023/03/03 06:27:46;;;;;;;20.47;12.30;;;;;;;0.17;66.14;99231.25;5091341;28;38763;-79
2023/03/03 06:30:14;;;;;;;26.63;14.87;;;;;;;0.11;66.39;99224.41;5074130;28;40978;-83
2023/03/03 06:32:42;;;;;;;24.67;14.63;;;;;;;0.27;66.05;99241.50;5091575;28;43475;-84
2023/03/03 06:35:10;;;;;;;23.33;13.37;;;;;;;0.34;66.02;99261.38;5074545;28;41240;-81
2023/03/03 06:37:38;;;;;;;22.33;12.73;;;;;;;0.41;66.14;99258.66;5053313;28;39096;-79
2023/03/03 06:40:07;;;;;;;19.77;12.13;;;;;;;0.48;65.83;99260.31;5091191;28;42687;-79
2023/03/03 06:42:36;;;;;;;18.47;12.17;;;;;;;0.49;65.85;99254.22;5091417;28;43784;-79
2023/03/03 06:45:08;;;;;;;21.73;12.47;;;;;;;0.61;65.49;99272.28;5073930;28;42624;-79
2023/03/03 06:47:35;;;;;;;22.57;14.03;;;;;;;0.68;65.67;99263.47;5071544;28;38890;-79
2023/03/03 06:50:03;;;;;;;24.97;13.70;;;;;;;0.65;65.51;99253.06;5078049;28;42262;-80
2023/03/03 06:52:31;;;;;;;25.07;13.43;;;;;;;0.76;65.53;99260.72;5095716;28;42828;-79
2023/03/03 06:55:02;;;;;;;24.63;13.93;;;;;;;0.81;65.49;99264.97;5096338;28;42276;-82
2023/03/03 06:57:31;;;;;;;23.40;13.67;;;;;;;0.93;65.02;99269.97;5092408;28;39964;-82
2023/03/03 07:00:13;;;;;;;23.33;13.43;;;;;;;1.04;64.87;99257.63;5095117;28;40585;-82
2023/03/03 07:02:41;;;;;;;23.23;13.53;;;;;;;1.58;64.32;99283.56;5095648;28;42725;-81
2023/03/03 07:05:14;;;;;;;23.43;13.20;;;;;;;2.26;63.64;99312.63;5070634;28;41291;-82
2023/03/03 07:07:42;;;;;;;24.50;13.70;;;;;;;3.01;62.46;99288.19;5078749;28;38718;-83
2023/03/03 07:10:20;;;;;;;24.30;14.80;;;;;;;4.17;61.02;99300.72;5094832;28;42709;-84
2023/03/03 07:12:48;;;;;;;26.60;14.87;;;;;;;5.64;58.25;99308.16;5092722;28;43149;-84
2023/03/03 07:15:17;;;;;;;23.03;14.20;;;;;;;7.12;55.86;99327.06;5076861;28;42221;-86
2023/03/03 07:17:48;;;;;;;22.73;15.10;;;;;;;8.49;53.64;99352.72;5077700;28;41112;-83
2023/03/03 07:20:20;;;;;;;26.83;16.27;;;;;;;9.48;50.81;99364.66;5076854;28;40839;-83
2023/03/03 07:22:48;;;;;;;25.30;17.73;;;;;;;10.59;48.09;99379.19;5077943;28;43331;-84
2023/03/03 07:25:25;;;;;;;29.43;18.40;;;;;;;11.31;46.63;99399.88;5077052;28;43719;-86
2023/03/03 07:27:56;;;;;;;26.50;18.77;;;;;;;10.89;46.35;99398.69;5091926;28;40874;-86
2023/03/03 07:30:27;;;;;;;24.97;18.23;;;;;;;10.07;47.39;99403.09;5076825;28;41231;-86
2023/03/03 07:32:58;;;;;;;26.43;18.23;;;;;;;9.73;48.04;99399.53;5094748;28;41556;-86
2023/03/03 07:35:47;;;;;;;26.33;17.73;;;;;;;10.01;46.83;99403.41;5093922;28;41171;-85
2023/03/03 07:38:26;;;;;;;25.20;16.37;;;;;;;9.59;47.46;99402.00;5074939;28;42878;-85
2023/03/03 07:40:56;;;;;;;26.40;18.23;;;;;;;9.51;47.47;99403.31;5073533;28;40549;-85
2023/03/03 07:43:33;;;;;;;31.37;20.43;;;;;;;8.90;47.87;99408.91;5074483;28;43459;-86
2023/03/03 07:46:16;;;;;;;28.30;18.30;;;;;;;8.33;49.17;99388.66;5088884;28;42176;-85
2023/03/03 07:48:45;;;;;;;30.30;19.57;;;;;;;8.08;50.49;99394.13;5077574;28;39090;-85
2023/03/03 07:51:21;;;;;;;29.23;19.33;;;;;;;7.74;51.20;99387.69;5060399;28;40632;-83
2023/03/03 07:53:49;;;;;;;29.67;19.53;;;;;;;7.49;52.22;99401.03;5077264;28;43487;-80
2023/03/03 07:56:30;;;;;;;32.07;20.33;;;;;;;7.18;53.41;99403.19;5072447;28;42269;-80
2023/03/03 07:58:58;;;;;;;31.93;20.97;;;;;;;6.91;54.16;99385.84;5073421;28;40000;-79
2023/03/03 08:01:39;;;;;;;27.30;18.60;;;;;;;6.88;54.51;99392.09;5092263;28;43364;-78
2023/03/03 08:04:18;;;;;;;26.97;18.83;;;;;;;7.24;54.21;99388.91;5093754;28;41807;-82
2023/03/03 08:06:49;;;;;;;29.30;18.67;;;;;;;7.77;53.60;99395.47;5094407;28;43189;-80
2023/03/03 08:09:39;;;;;;;31.03;20.70;;;;;;;8.03;52.57;99412.81;5090131;28;39777;-80
2023/03/03 08:12:43;;;;;;;30.23;19.90;;;;;;;8.08;51.56;99416.09;5064235;28;43196;-78
2023/03/03 08:15:19;;;;;;;29.33;18.83;;;;;;;8.40;51.12;99421.78;5091814;28;43497;-79
2023/03/03 08:17:48;;;;;;;27.47;19.07;;;;;;;8.28;51.19;99413.44;5076565;28;42454;-82
2023/03/03 08:20:52;;;;;;;32.90;20.83;;;;;;;8.72;50.98;99422.94;5055191;28;40131;-77
2023/03/03 08:23:22;;;;;;;26.03;18.10;;;;;;;9.68;48.99;99433.25;5070817;28;41816;-78
2023/03/03 08:25:51;;;;;;;30.70;19.67;;;;;;;11.41;45.66;99454.09;5069947;28;41720;-80
2023/03/03 08:28:18;;;;;;;25.63;18.77;;;;;;;13.44;41.80;99463.97;5092707;28;42123;-78
2023/03/03 08:30:47;;;;;;;26.13;19.27;;;;;;;15.01;39.15;99464.81;5092539;28;39786;-79
2023/03/03 08:33:15;;;;;;;23.70;18.80;;;;;;;16.53;36.82;99488.25;5093302;28;41746;-79
2023/03/03 08:35:43;;;;;;;25.63;19.63;;;;;;;17.39;34.47;99496.63;5092342;28;42865;-79
2023/03/03 08:38:12;;;;;;;21.43;18.43;;;;;;;17.90;34.03;99485.34;5092521;28;43402;-79
2023/03/03 08:40:42;;;;;;;22.90;19.13;;;;;;;18.49;32.71;99515.19;5091788;28;39052;-78
2023/03/03 08:43:09;;;;;;;23.90;19.43;;;;;;;17.65;33.26;99482.97;5076046;28;40555;-79
2023/03/03 08:45:37;;;;;;;23.80;18.97;;;;;;;18.58;32.06;99497.50;5093449;28;42412;-80
2023/03/03 08:48:05;;;;;;;23.13;18.87;;;;;;;20.43;30.81;99507.75;5093188;28;42186;-79
2023/03/03 08:50:33;;;;;;;23.37;19.87;;;;;;;21.77;27.62;99527.22;5074544;28;39069;-79
2023/03/03 08:53:01;;;;;;;22.50;18.23;;;;;;;22.66;27.38;99531.84;5093562;28;42686;-80
2023/03/03 08:55:29;;;;;;;21.13;18.73;;;;;;;22.46;26.53;99532.03;5091844;28;42659;-80
2023/03/03 08:57:58;;;;;;;22.83;20.10;;;;;;;23.04;25.86;99531.50;5074946;28;43454;-78
2023/03/03 09:00:26;;;;;;;21.57;19.27;;;;;;;23.72;24.50;99545.09;5092370;28;41645;-81
2023/03/03 09:02:54;;;;;;;20.97;18.77;;;;;;;24.51;23.46;99551.91;5091934;28;41769;-82
2023/03/03 09:05:23;;;;;;;21.33;19.07;;;;;;;25.23;22.84;99542.06;5091190;28;42603;-82
2023/03/03 09:07:52;;;;;;;21.70;19.40;;;;;;;25.74;22.47;99543.47;5092224;28;42894;-82
2023/03/03 09:10:28;;;;;;;21.67;19.27;;;;;;;26.36;21.90;99557.91;5069920;28;38909;-82
2023/03/03 09:12:57;;;;;;;21.00;18.83;;;;;;;26.54;21.63;99560.34;5071913;28;41068;-83
2023/03/03 09:15:29;;;;;;;19.50;17.50;;;;;;;26.86;21.55;99561.13;5082564;28;41799;-82
2023/03/03 09:18:00;;;;;;;20.67;18.40;;;;;;;27.41;20.53;99558.91;5075197;28;43269;-83
2023/03/03 09:20:36;;;;;;;19.60;17.60;;;;;;;27.88;20.95;99563.16;5071075;28;41550;-82
2023/03/03 09:23:38;;;;;;;21.27;19.07;;;;;;;28.38;20.28;99559.59;5071927;28;41856;-81
2023/03/03 09:26:29;;;;;;;22.98;20.67;;;;;;;29.28;19.18;99564.44;5012909;28;42616;-84
2023/03/03 09:29:16;;;;;;;22.17;19.87;;;;;;;29.47;18.30;99546.53;5011221;28;41131;-81
2023/03/03 09:31:46;;;;;;;22.47;20.10;;;;;;;28.95;18.99;99548.63;5055286;28;39913;-83
2023/03/03 09:34:20;;;;;;;18.27;16.50;;;;;;;29.46;18.95;99545.69;5069353;28;42367;-85
2023/03/03 09:36:48;;;;;;;21.38;19.27;;;;;;;29.61;18.88;99559.22;5092830;28;42692;-83
2023/03/03 09:39:19;;;;;;;20.70;18.50;;;;;;;29.73;19.08;99556.75;5074660;28;42645;-82
2023/03/03 09:42:34;;;;;;;20.67;18.67;;;;;;;29.81;18.99;99551.13;5091997;28;39694;-86
2023/03/03 09:45:26;;;;;;;18.87;16.97;;;;;;;29.17;19.37;99545.88;5085974;28;41642;-85
2023/03/03 09:48:19;;;;;;;22.00;19.70;;;;;;;27.10;20.87;99544.59;5075057;28;41703;-86
2023/03/03 09:50:58;;;;;;;20.67;18.47;;;;;;;25.56;21.75;99531.97;5071782;28;44104;-83
2023/03/03 09:53:42;;;;;;;21.23;17.83;;;;;;;24.55;23.08;99532.44;5074630;28;39856;-81
2023/03/03 09:56:16;;;;;;;21.13;18.73;;;;;;;23.75;24.07;99523.09;5089596;28;42615;-80
2023/03/03 09:58:57;;;;;;;20.43;18.20;;;;;;;23.12;24.79;99519.91;5088116;28;42650;-80
2023/03/03 10:01:46;;;;;;;21.87;18.97;;;;;;;23.63;24.86;99513.59;5089726;28;43145;-82
2023/03/03 10:07:35;;;;;;;21.03;17.97;;;;;;;27.56;20.56;99528.19;5149655;27;20925;-83
2023/03/03 10:10:19;;;;;;;21.53;19.27;;;;;;;29.00;19.26;99536.31;5145676;27;39916;-80
2023/03/03 10:12:56;;;;;;;21.00;18.90;;;;;;;29.37;19.05;99519.56;5147138;27;41638;-80
2023/03/03 10:15:36;;;;;;;20.73;18.57;;;;;;;29.68;18.62;99560.09;5146195;27;42940;-81
2023/03/03 10:18:17;;;;;;;20.50;18.37;;;;;;;30.32;18.21;99546.94;5147212;27;42009;-84
2023/03/03 10:20:54;;;;;;;19.40;17.33;;;;;;;30.85;17.59;99558.00;5130814;27;38799;-83
2023/03/03 10:23:38;;;;;;;22.02;19.73;;;;;;;31.26;17.05;99559.72;5147510;27;42525;-78
2023/03/03 10:26:18;;;;;;;20.00;17.90;;;;;;;31.82;16.70;99561.94;5147308;27;43675;-82
2023/03/03 10:29:06;;;;;;;19.52;17.60;;;;;;;31.81;16.71;99562.97;5145966;27;42211;-84
2023/03/03 10:31:55;;;;;;;19.88;18.08;;;;;;;31.92;15.99;99565.06;5148703;27;39644;-81
2023/03/03 10:34:42;;;;;;;20.38;18.48;;;;;;;32.63;16.60;99563.03;5144995;27;41667;-81
2023/03/03 10:37:17;;;;;;;19.67;17.67;;;;;;;32.82;16.47;99570.31;5145891;27;42711;-81
2023/03/03 10:40:04;;;;;;;19.80;17.77;;;;;;;32.89;16.68;99583.97;5148007;27;41793;-83
2023/03/03 10:42:55;;;;;;;22.52;20.42;;;;;;;31.64;16.76;99579.91;5146158;27;41198;-84
2023/03/03 10:46:02;;;;;;;20.83;18.75;;;;;;;31.06;17.43;99560.53;5136191;27;40867;-85
2023/03/03 10:48:54;;;;;;;19.52;17.70;;;;;;;30.94;17.57;99564.94;5148581;27;43918;-88
2023/03/03 10:51:28;;;;;;;19.83;17.83;;;;;;;30.92;17.39;99561.56;5148542;27;42058;-79
2023/03/03 10:54:09;;;;;;;19.85;17.77;;;;;;;30.83;17.71;99565.56;5146261;27;40029;-80
2023/03/03 10:56:47;;;;;;;19.87;17.87;;;;;;;30.90;18.12;99560.97;5147843;27;40892;-82
2023/03/03 10:59:37;;;;;;;18.27;16.57;;;;;;;31.69;17.33;99565.53;5145023;27;42650;-83
2023/03/03 11:02:13;;;;;;;18.90;17.00;;;;;;;31.98;17.09;99547.75;5148267;27;42024;-82
2023/03/03 11:05:02;;;;;;;20.83;17.60;;;;;;;32.30;16.45;99556.91;5127759;27;39143;-83
2023/03/03 11:07:39;;;;;;;18.47;16.57;;;;;;;32.25;16.72;99565.81;5128173;27;41848;-83
2023/03/03 11:10:28;;;;;;;18.87;16.60;;;;;;;32.21;16.75;99553.59;5118714;27;42911;-83
2023/03/03 11:13:10;;;;;;;18.65;16.45;;;;;;;32.39;16.88;99555.59;5148132;27;41067;-80
2023/03/03 11:15:48;;;;;;;19.35;17.10;;;;;;;32.91;16.76;99543.44;5146668;27;39926;-80
2023/03/03 11:18:25;;;;;;;19.73;17.25;;;;;;;33.82;16.31;99545.56;5118600;27;43101;-82
2023/03/03 11:20:58;;;;;;;19.67;17.77;;;;;;;34.35;15.08;99551.25;5133230;27;44537;-83
2023/03/03 11:24:10;;;;;;;19.63;17.63;;;;;;;33.45;15.42;99555.66;5134154;27;41347;-82
2023/03/03 11:26:58;;;;;;;19.77;17.77;;;;;;;34.04;15.67;99541.25;5091533;27;38833;-83
2023/03/03 11:29:39;;;;;;;17.55;15.85;;;;;;;34.64;14.95;99537.69;5098641;27;40682;-79
2023/03/03 11:32:21;;;;;;;17.77;15.98;;;;;;;34.49;14.69;99530.72;5116249;27;42646;-79
2023/03/03 11:35:01;;;;;;;19.38;17.38;;;;;;;34.94;15.17;99528.34;5129874;27;43075;-77
2023/03/03 11:37:40;;;;;;;19.15;16.10;;;;;;;35.54;14.39;99532.78;5131169;27;41164;-85
2023/03/03 11:40:16;;;;;;;21.02;16.20;;;;;;;35.62;14.93;99526.91;5133357;27;42437;-81
2023/03/03 11:42:55;;;;;;;19.83;17.75;;;;;;;34.91;14.96;99516.94;5131679;27;43704;-82
2023/03/03 11:45:31;;;;;;;18.10;16.20;;;;;;;33.52;15.91;99499.56;5133085;27;44018;-82
2023/03/03 11:48:06;;;;;;;17.92;16.13;;;;;;;32.27;16.93;99505.28;5117255;27;40137;-81
2023/03/03 11:50:39;;;;;;;17.67;15.82;;;;;;;32.36;17.12;99501.19;5134127;27;41711;-83